Allen, Michigan
Current Conditions -  °F | °C
As of 8:35 PM on Saturday 25 Oct 2014 (Local Time) from KJYM Reporting Station
Clear Clear  
Wind Chill: 57°   Ceiling: Unl
Heat Index: 57°   Visibility: 10mi
Dew Point: 32°   Wind: 8mph
Humidity: 40%   Direction: 290°WNW
Pressure: 29.84"   Gusts: NA
Location:  41.96°N, 84.77°W
Report Text: KJYM 260035Z AUTO 29007KT 10SM CLR 14/00 A2984 RMK AO2 T01370001
Loading
Personal Weather Stations






























Interactive Weather Map
Tropical Storm Tracking
New forecast layout! Learn more

10-Day Weather Forecast

Advertisements
Track Severe Weather on mobile